Time;durP1;ratioP1;P1;durP2;ratioP2;P2;SDS_P1;SDS_P2;PMS_P1;PMS_P2;Temp;Humidity;BMP_temperature;BMP_pressure;BME280_temperature;BME280_humidity;BME280_pressure;Samples;Min_cycle;Max_cycle;Signal;HPM_P1;HPM_P2
2022/11/04 00:02:04;;;;;;;19.03;10.90;;;9.30;1.00;;;;;;6159260;23;20428;-83
2022/11/04 00:04:31;;;;;;;16.50;11.27;;;9.30;1.00;;;;;;6160769;23;20418;-82
2022/11/04 00:08:22;;;;;;;19.93;10.97;;;9.20;1.00;;;;;;6159436;23;20465;-83
2022/11/04 00:09:52;;;;;;;12.60;8.70;;;9.20;1.00;;;;;;6160132;23;21339;-82
2022/11/04 00:12:24;;;;;;;16.43;11.00;;;9.20;1.00;;;;;;6160705;23;20503;-82
2022/11/04 00:14:51;;;;;;;15.90;9.70;;;9.10;1.00;;;;;;6160826;23;20420;-81
2022/11/04 00:17:22;;;;;;;19.20;10.23;;;9.10;1.00;;;;;;6160930;23;20415;-83
2022/11/04 00:33:24;;;;;;;19.00;10.57;;;8.90;1.00;;;;;;6159287;23;20409;-82
2022/11/04 00:33:47;;;;;;;14.17;10.17;;;9.00;1.00;;;;;;6159690;23;20486;-82
2022/11/04 00:36:15;;;;;;;15.37;10.50;;;9.00;1.00;;;;;;6161296;23;20445;-81
2022/11/04 00:38:45;;;;;;;15.77;10.30;;;9.00;1.00;;;;;;6160632;23;20421;-80
2022/11/04 00:41:27;;;;;;;16.37;10.77;;;9.00;1.00;;;;;;6161684;23;21236;-81
2022/11/04 00:43:57;;;;;;;13.20;9.67;;;9.00;1.00;;;;;;6162760;23;20402;-81
2022/11/04 00:46:25;;;;;;;18.53;10.20;;;8.90;1.00;;;;;;6161610;23;20441;-82
2022/11/04 00:48:54;;;;;;;20.38;12.05;;;8.80;1.00;;;;;;6161977;23;20417;-81
2022/11/04 00:51:22;;;;;;;20.83;11.50;;;8.70;1.00;;;;;;6160435;23;20231;-81
2022/11/04 00:53:53;;;;;;;19.30;10.57;;;8.70;1.00;;;;;;6159947;23;21233;-82
2022/11/04 00:56:24;;;;;;;19.17;11.40;;;8.70;1.00;;;;;;6159647;23;21125;-81
2022/11/04 00:58:54;;;;;;;15.00;9.80;;;8.70;1.00;;;;;;6157875;23;20467;-81
2022/11/04 01:01:24;;;;;;;19.20;11.03;;;8.70;1.00;;;;;;6160129;23;20355;-81
2022/11/04 01:03:54;;;;;;;18.43;10.43;;;8.70;1.00;;;;;;6158983;23;20416;-80
2022/11/04 01:06:25;;;;;;;15.88;10.63;;;8.60;1.00;;;;;;6164103;23;20435;-83
2022/11/04 01:09:01;;;;;;;20.00;10.10;;;8.60;1.00;;;;;;6155888;23;20325;-81
2022/11/04 01:11:29;;;;;;;16.37;11.03;;;8.60;1.00;;;;;;6160681;23;20427;-81
2022/11/04 01:13:57;;;;;;;16.70;10.50;;;8.50;1.00;;;;;;6157706;23;20511;-81
2022/11/04 01:16:24;;;;;;;17.27;11.57;;;8.60;1.00;;;;;;6154193;23;20424;-81
2022/11/04 01:18:54;;;;;;;15.38;10.70;;;8.60;1.00;;;;;;6146450;23;20564;-81
2022/11/04 01:21:23;;;;;;;15.57;10.70;;;8.50;1.00;;;;;;6161645;23;20222;-80
2022/11/04 01:23:52;;;;;;;15.30;11.23;;;8.60;1.00;;;;;;6160885;23;20452;-81
2022/11/04 01:26:24;;;;;;;17.20;11.07;;;8.60;1.00;;;;;;6162479;23;20223;-81
2022/11/04 01:28:53;;;;;;;16.43;11.60;;;8.60;1.00;;;;;;6159088;23;20431;-81
2022/11/04 01:31:22;;;;;;;14.25;10.90;;;8.60;1.00;;;;;;6161136;23;21170;-80
2022/11/04 01:33:53;;;;;;;20.20;12.10;;;8.70;1.00;;;;;;6160214;23;20248;-80
2022/11/04 01:36:21;;;;;;;18.98;11.07;;;8.70;1.00;;;;;;6161172;23;20908;-81
2022/11/04 01:38:50;;;;;;;16.63;11.25;;;8.80;1.00;;;;;;6161415;23;20230;-80
2022/11/04 01:41:21;;;;;;;22.83;10.83;;;8.80;1.00;;;;;;6160945;23;20619;-82
2022/11/04 01:43:50;;;;;;;17.10;10.43;;;8.80;1.00;;;;;;6159563;23;21027;-81
2022/11/04 01:46:28;;;;;;;20.55;12.18;;;8.90;1.00;;;;;;6161150;23;20435;-81
2022/11/04 01:49:03;;;;;;;17.33;11.50;;;8.90;1.00;;;;;;6159499;23;20673;-80
2022/11/04 01:51:33;;;;;;;16.10;11.73;;;8.90;1.00;;;;;;6161068;23;20463;-81
2022/11/04 01:54:01;;;;;;;18.80;11.30;;;9.00;1.00;;;;;;6159582;23;20432;-81
2022/11/04 01:56:33;;;;;;;15.37;10.87;;;9.00;1.00;;;;;;6161113;23;21028;-81
2022/11/04 01:59:04;;;;;;;18.40;11.03;;;9.00;1.00;;;;;;6161307;23;20427;-81
2022/11/04 02:01:31;;;;;;;15.17;10.97;;;9.00;1.00;;;;;;6157742;23;20428;-82
2022/11/04 02:04:24;;;;;;;15.47;11.23;;;9.00;1.00;;;;;;6159006;23;20428;-80
2022/11/04 02:06:55;;;;;;;16.70;10.90;;;9.00;1.00;;;;;;6160014;23;20420;-82
2022/11/04 02:09:24;;;;;;;18.02;11.40;;;9.10;1.00;;;;;;6159487;23;20970;-82
2022/11/04 02:14:37;;;;;;;14.20;11.77;;;8.90;1.00;;;;;;6157149;23;20478;-80
2022/11/04 02:17:14;;;;;;;16.20;10.50;;;8.80;1.00;;;;;;6158983;23;20413;-80
2022/11/04 02:20:02;;;;;;;14.93;11.10;;;8.80;1.00;;;;;;6143097;23;20432;-80
2022/11/04 02:22:48;;;;;;;16.43;11.93;;;8.80;1.00;;;;;;6158461;23;20272;-82
2022/11/04 02:25:48;;;;;;;25.93;12.83;;;8.60;1.00;;;;;;6157387;23;20433;-81
2022/11/04 02:28:42;;;;;;;19.60;12.05;;;8.60;1.00;;;;;;6124594;23;20471;-83
2022/11/04 02:31:14;;;;;;;17.23;12.60;;;8.70;1.00;;;;;;6203752;22;20212;-81
2022/11/04 02:33:53;;;;;;;18.43;12.07;;;8.70;1.00;;;;;;6211392;22;20203;-82
2022/11/04 02:36:29;;;;;;;18.02;11.50;;;8.60;1.00;;;;;;6247625;22;20390;-81
2022/11/04 02:39:07;;;;;;;16.60;11.40;;;8.60;1.00;;;;;;6212911;22;20340;-80
2022/11/04 02:41:41;;;;;;;19.57;12.03;;;8.70;1.00;;;;;;6238092;22;20508;-80
2022/11/04 02:44:17;;;;;;;16.83;11.80;;;8.70;1.00;;;;;;6208227;22;20426;-79
2022/11/04 02:46:53;;;;;;;23.88;11.65;;;8.70;1.00;;;;;;6204214;22;21022;-80
2022/11/04 02:49:34;;;;;;;14.80;11.00;;;8.60;1.00;;;;;;6215138;22;20215;-78
2022/11/04 02:52:07;;;;;;;15.73;11.85;;;8.70;1.00;;;;;;6204037;22;20227;-79
2022/11/04 02:54:41;;;;;;;21.50;13.90;;;8.70;1.00;;;;;;6216983;22;20251;-80
2022/11/04 02:57:13;;;;;;;19.50;12.83;;;8.80;1.00;;;;;;6231696;22;20435;-80
2022/11/04 02:59:44;;;;;;;15.80;11.40;;;8.70;1.00;;;;;;6193118;22;20522;-78
2022/11/04 03:02:20;;;;;;;15.80;11.45;;;8.70;1.00;;;;;;6211016;22;20551;-80
2022/11/04 03:04:53;;;;;;;17.93;11.43;;;8.80;1.00;;;;;;6193730;22;20225;-82
2022/11/04 03:07:24;;;;;;;18.17;11.47;;;8.80;1.00;;;;;;6223669;22;20458;-81
2022/11/04 03:10:01;;;;;;;19.92;12.30;;;8.80;1.00;;;;;;6204689;22;20415;-83
2022/11/04 03:12:36;;;;;;;17.17;11.77;;;8.80;1.00;;;;;;6219321;22;20289;-78
2022/11/04 03:15:07;;;;;;;19.03;12.13;;;8.70;1.00;;;;;;6219491;22;20210;-79
2022/11/04 03:17:41;;;;;;;19.80;12.20;;;8.60;1.00;;;;;;6218357;22;20432;-81
2022/11/04 03:20:14;;;;;;;16.70;12.02;;;8.60;1.00;;;;;;6220514;22;20423;-82
2022/11/04 03:22:41;;;;;;;18.47;12.67;;;8.60;1.00;;;;;;6227853;22;20220;-80
2022/11/04 03:25:10;;;;;;;16.30;12.00;;;8.60;1.00;;;;;;6221433;22;21114;-78
2022/11/04 03:27:47;;;;;;;16.00;11.60;;;8.70;1.00;;;;;;6218268;22;20427;-78
2022/11/04 03:30:17;;;;;;;15.77;11.18;;;8.70;1.00;;;;;;6220743;22;20468;-79
2022/11/04 03:32:57;;;;;;;17.63;12.80;;;8.80;1.00;;;;;;6204016;22;20215;-79
2022/11/04 03:35:26;;;;;;;14.97;11.97;;;8.80;1.00;;;;;;6214647;22;20426;-80
2022/11/04 03:37:53;;;;;;;16.10;12.20;;;8.80;1.00;;;;;;6194371;22;20418;-80
2022/11/04 03:40:24;;;;;;;17.27;11.97;;;8.60;1.00;;;;;;6211625;22;20507;-80
2022/11/04 03:42:57;;;;;;;18.23;12.53;;;8.60;1.00;;;;;;6221185;22;20459;-80
2022/11/04 03:45:24;;;;;;;16.57;11.53;;;8.70;1.00;;;;;;6216480;22;20421;-79
2022/11/04 03:47:55;;;;;;;17.63;11.90;;;8.80;1.00;;;;;;6218607;22;20435;-79
2022/11/04 03:50:27;;;;;;;18.77;13.27;;;8.90;1.00;;;;;;6229134;22;20927;-81
2022/11/04 03:52:55;;;;;;;15.40;11.07;;;8.90;1.00;;;;;;6219328;22;21089;-82
2022/11/04 03:55:28;;;;;;;17.83;13.13;;;9.00;1.00;;;;;;6216164;22;20938;-80
2022/11/04 03:58:04;;;;;;;18.73;12.40;;;8.80;1.00;;;;;;6206507;22;20439;-79
2022/11/04 04:00:44;;;;;;;16.20;11.60;;;8.80;1.00;;;;;;6213990;22;20453;-78
2022/11/04 04:03:24;;;;;;;19.37;14.10;;;8.80;1.00;;;;;;6194218;22;20490;-78
2022/11/04 04:05:55;;;;;;;17.63;12.73;;;8.70;1.00;;;;;;6193153;22;20433;-79
2022/11/04 04:08:37;;;;;;;16.77;11.87;;;8.80;1.00;;;;;;6175880;23;20435;-80
2022/11/04 04:11:14;;;;;;;18.03;12.90;;;8.80;1.00;;;;;;6190823;23;20833;-79
2022/11/04 04:13:52;;;;;;;20.03;14.20;;;8.80;1.00;;;;;;6165881;23;20424;-81
2022/11/04 04:16:33;;;;;;;18.58;13.25;;;8.70;1.00;;;;;;6180864;23;20422;-78
2022/11/04 04:19:12;;;;;;;18.07;12.47;;;8.60;1.00;;;;;;6165952;23;20222;-80
2022/11/04 04:21:46;;;;;;;18.25;12.10;;;8.70;1.00;;;;;;6139222;23;21097;-79
2022/11/04 04:29:55;;;;;;;21.47;15.33;;;8.80;1.00;;;;;;6180172;23;20657;-79
2022/11/04 04:32:37;;;;;;;17.88;14.13;;;8.80;1.00;;;;;;6165043;23;20979;-82
2022/11/04 04:44:58;;;;;;;20.80;12.90;;;8.90;1.00;;;;;;6201250;23;20203;-79
2022/11/04 04:46:29;;;;;;;19.52;13.32;;;8.90;1.00;;;;;;6177896;23;20217;-81
2022/11/04 04:49:06;;;;;;;17.77;12.70;;;8.90;1.00;;;;;;6188667;22;22229;-80
2022/11/04 04:51:37;;;;;;;20.33;13.07;;;9.00;1.00;;;;;;6207118;23;20567;-81
2022/11/04 04:54:04;;;;;;;20.80;13.73;;;9.00;1.00;;;;;;6181594;23;20421;-78
2022/11/04 04:56:33;;;;;;;14.90;12.30;;;9.00;1.00;;;;;;6207654;23;20915;-79
2022/11/04 04:59:03;;;;;;;17.90;12.73;;;9.10;1.00;;;;;;6180534;23;20433;-81
2022/11/04 05:01:36;;;;;;;18.50;13.90;;;9.10;1.00;;;;;;6168195;23;20437;-80
2022/11/04 05:04:05;;;;;;;19.23;14.30;;;9.20;1.00;;;;;;6184708;22;21124;-82
2022/11/04 05:06:35;;;;;;;17.20;13.23;;;9.20;1.00;;;;;;6219777;22;20929;-80
2022/11/04 05:09:14;;;;;;;20.07;13.83;;;9.20;1.00;;;;;;6195886;22;20497;-79
2022/11/04 05:11:42;;;;;;;16.40;12.80;;;9.30;1.00;;;;;;6228985;22;20439;-79
2022/11/04 05:14:15;;;;;;;22.02;14.00;;;9.30;1.00;;;;;;6214567;22;20430;-81
2022/11/04 05:16:42;;;;;;;18.10;13.80;;;9.30;1.00;;;;;;6197056;22;20289;-81
2022/11/04 05:19:15;;;;;;;19.90;13.07;;;9.30;1.00;;;;;;6230985;22;20423;-79
2022/11/04 05:21:46;;;;;;;21.33;16.77;;;9.40;1.00;;;;;;6182744;22;20439;-79
2022/11/04 05:24:14;;;;;;;17.53;13.13;;;9.30;1.00;;;;;;6221987;22;20414;-78
2022/11/04 05:26:44;;;;;;;19.93;15.23;;;9.40;1.00;;;;;;6204009;22;20424;-81
2022/11/04 05:29:17;;;;;;;18.77;14.03;;;9.40;1.00;;;;;;6222174;22;20446;-79
2022/11/04 05:31:49;;;;;;;23.50;14.40;;;9.40;1.00;;;;;;6195741;22;21165;-79
2022/11/04 05:34:16;;;;;;;24.20;14.60;;;9.50;1.00;;;;;;6242011;22;20419;-80
2022/11/04 05:36:44;;;;;;;18.00;14.10;;;9.50;1.00;;;;;;6208460;22;20430;-79
2022/11/04 05:39:13;;;;;;;20.47;13.90;;;9.50;1.00;;;;;;6229080;22;20450;-80
2022/11/04 05:41:39;;;;;;;18.40;13.63;;;9.50;1.00;;;;;;6220907;22;20436;-79
2022/11/04 05:44:09;;;;;;;19.20;13.40;;;9.60;1.00;;;;;;6195444;22;20422;-79
2022/11/04 05:46:36;;;;;;;18.93;13.67;;;9.70;1.00;;;;;;6208137;22;20425;-80
2022/11/04 05:49:04;;;;;;;18.40;12.07;;;9.70;1.00;;;;;;6221261;22;20468;-79
2022/11/04 05:51:32;;;;;;;19.07;12.80;;;9.70;1.00;;;;;;6222012;22;20465;-80
2022/11/04 05:54:06;;;;;;;20.27;14.17;;;9.80;1.00;;;;;;6221505;22;20430;-79
2022/11/04 05:56:36;;;;;;;19.40;12.73;;;9.80;1.00;;;;;;6211248;22;20916;-81
2022/11/04 05:59:03;;;;;;;17.20;12.93;;;9.80;1.00;;;;;;6217232;22;20438;-82
2022/11/04 06:01:34;;;;;;;16.67;12.40;;;9.90;1.00;;;;;;6218768;22;20436;-84
2022/11/04 06:04:02;;;;;;;18.83;13.23;;;9.90;1.00;;;;;;6216679;22;20412;-81
2022/11/04 06:06:34;;;;;;;16.83;12.77;;;9.90;1.00;;;;;;6219265;22;20872;-80
2022/11/04 06:09:05;;;;;;;19.50;13.10;;;10.00;1.00;;;;;;6219944;22;20899;-80
2022/11/04 06:11:35;;;;;;;19.77;12.90;;;9.90;1.00;;;;;;6219515;22;20430;-81
2022/11/04 06:14:02;;;;;;;18.33;13.30;;;9.90;1.00;;;;;;6221669;22;20533;-79
2022/11/04 06:16:34;;;;;;;19.87;12.83;;;9.80;1.00;;;;;;6231609;22;20437;-82
2022/11/04 06:19:02;;;;;;;17.90;13.40;;;9.80;1.00;;;;;;6221738;22;20422;-80
2022/11/04 06:21:33;;;;;;;20.80;13.53;;;9.80;1.00;;;;;;6225133;22;20773;-80
2022/11/04 06:24:02;;;;;;;18.57;13.43;;;9.90;1.00;;;;;;6214888;22;20452;-79
2022/11/04 06:26:34;;;;;;;20.80;14.17;;;9.90;1.00;;;;;;6241918;22;20463;-78
2022/11/04 06:29:02;;;;;;;17.00;12.80;;;9.90;1.00;;;;;;6220226;22;21022;-80
2022/11/04 06:31:33;;;;;;;17.60;13.50;;;9.90;1.00;;;;;;6221440;22;20460;-81
2022/11/04 06:34:00;;;;;;;17.67;13.27;;;10.00;1.00;;;;;;6196118;22;20387;-81
2022/11/04 06:36:27;;;;;;;17.10;13.07;;;9.90;1.00;;;;;;6201018;22;20436;-82
2022/11/04 06:38:54;;;;;;;20.50;14.23;;;9.90;1.00;;;;;;6229492;22;20407;-81
2022/11/04 06:41:23;;;;;;;17.57;12.80;;;9.90;1.00;;;;;;6220909;22;21035;-80
2022/11/04 06:43:51;;;;;;;18.30;13.33;;;10.00;1.00;;;;;;6209085;22;20415;-82
2022/11/04 06:46:27;;;;;;;18.43;12.83;;;10.10;1.00;;;;;;6208596;22;20440;-81
2022/11/04 06:48:55;;;;;;;19.63;13.63;;;10.10;1.00;;;;;;6219426;22;20449;-81
2022/11/04 06:51:22;;;;;;;20.10;14.17;;;10.20;1.00;;;;;;6223043;22;20437;-80
2022/11/04 06:53:49;;;;;;;17.70;12.43;;;10.20;1.00;;;;;;6222942;22;20432;-78
2022/11/04 06:56:16;;;;;;;18.80;14.03;;;10.30;1.00;;;;;;6220962;22;20447;-78
2022/11/04 06:58:57;;;;;;;18.60;12.80;;;10.30;1.00;;;;;;6223037;22;20428;-79
2022/11/04 07:01:26;;;;;;;22.27;14.50;;;10.40;1.00;;;;;;6213211;22;20434;-78
2022/11/04 07:03:57;;;;;;;22.93;14.10;;;10.40;1.00;;;;;;6232354;22;20470;-80
2022/11/04 07:06:31;;;;;;;18.37;13.40;;;10.40;1.00;;;;;;6203494;22;20422;-79
2022/11/04 07:09:00;;;;;;;20.80;14.60;;;10.50;1.00;;;;;;6220026;22;20435;-84
2022/11/04 07:11:29;;;;;;;22.67;13.67;;;10.60;1.00;;;;;;6224514;22;20467;-82
2022/11/04 07:13:57;;;;;;;23.23;15.87;;;10.60;1.00;;;;;;6221511;22;20422;-81
2022/11/04 07:16:28;;;;;;;16.63;12.43;;;10.50;1.00;;;;;;6206927;22;20439;-84
2022/11/04 07:18:55;;;;;;;19.47;15.00;;;10.60;1.00;;;;;;6194467;22;20424;-81
2022/11/04 07:21:22;;;;;;;20.50;14.67;;;10.70;1.00;;;;;;6239940;22;20464;-80
2022/11/04 07:23:51;;;;;;;21.30;14.00;;;10.70;1.00;;;;;;6220064;22;20921;-82
2022/11/04 07:26:18;;;;;;;19.07;14.93;;;10.70;1.00;;;;;;6223507;22;20480;-81
2022/11/04 07:28:45;;;;;;;19.87;14.40;;;10.70;1.00;;;;;;6219772;22;20431;-81
2022/11/04 07:31:14;;;;;;;19.47;14.97;;;10.80;1.00;;;;;;6209305;22;20440;-82
2022/11/04 07:33:41;;;;;;;20.67;15.80;;;10.70;1.00;;;;;;6208453;22;20451;-80
2022/11/04 07:36:15;;;;;;;21.13;14.20;;;10.70;1.00;;;;;;6221655;22;20434;-80
2022/11/04 07:38:46;;;;;;;18.50;14.70;;;10.70;1.00;;;;;;6206596;22;20537;-82
2022/11/04 07:41:15;;;;;;;22.03;16.90;;;10.70;1.00;;;;;;6213623;22;20440;-81
2022/11/04 07:43:57;;;;;;;;;;;;;;;;;;;;;
2022/11/04 07:46:25;;;;;;;25.00;16.27;;;10.70;1.00;;;;;;6217318;22;41888;-80
2022/11/04 07:48:53;;;;;;;21.00;15.47;;;10.70;1.00;;;;;;6205464;22;20523;-80
2022/11/04 07:51:22;;;;;;;18.80;14.97;;;10.80;1.00;;;;;;6238196;22;21215;-82
2022/11/04 07:53:49;;;;;;;22.80;16.03;;;10.90;1.00;;;;;;6221958;22;20443;-83
2022/11/04 07:56:17;;;;;;;21.30;18.40;;;11.00;1.00;;;;;;6219921;22;20419;-83
2022/11/04 07:58:45;;;;;;;24.30;17.83;;;11.10;1.00;;;;;;6208788;22;20427;-84
2022/11/04 08:01:16;;;;;;;23.00;18.73;;;11.30;1.00;;;;;;6222412;22;20435;-82
2022/11/04 08:03:45;;;;;;;24.13;17.00;;;11.40;1.00;;;;;;6206744;22;20414;-81
2022/11/04 08:06:14;;;;;;;26.57;21.63;;;11.50;1.00;;;;;;6233061;22;21215;-81
2022/11/04 08:08:42;;;;;;;35.53;24.77;;;11.60;1.00;;;;;;6210673;22;20431;-82
2022/11/04 08:11:12;;;;;;;23.20;17.33;;;11.60;1.00;;;;;;6210784;22;20409;-81
2022/11/04 08:13:45;;;;;;;20.90;15.40;;;11.60;1.00;;;;;;6185484;22;20428;-82
2022/11/04 08:16:16;;;;;;;20.83;16.70;;;11.60;1.00;;;;;;6221567;22;20394;-82
2022/11/04 08:18:44;;;;;;;21.37;18.40;;;11.60;1.00;;;;;;6220328;22;20393;-81
2022/11/04 08:21:12;;;;;;;23.93;20.13;;;11.50;1.00;;;;;;6231313;22;20439;-84
2022/11/04 08:23:39;;;;;;;26.60;18.97;;;11.50;1.00;;;;;;6219588;22;20425;-81
2022/11/04 08:26:08;;;;;;;25.83;15.47;;;11.60;1.00;;;;;;6194215;22;20513;-81
2022/11/04 08:28:36;;;;;;;20.47;15.53;;;11.60;1.00;;;;;;6221983;22;20437;-81
2022/11/04 08:31:06;;;;;;;20.47;15.10;;;11.70;1.00;;;;;;6219936;22;20494;-80
2022/11/04 08:33:36;;;;;;;18.20;14.80;;;11.80;1.00;;;;;;6201731;22;20427;-80
2022/11/04 08:36:08;;;;;;;24.60;17.00;;;11.80;1.00;;;;;;6205530;22;20495;-77
2022/11/04 08:38:35;;;;;;;20.80;14.17;;;11.80;1.00;;;;;;6227761;22;20415;-79
2022/11/04 08:41:06;;;;;;;21.17;15.57;;;11.80;1.00;;;;;;6208932;22;20508;-79
2022/11/04 08:43:36;;;;;;;19.03;16.30;;;11.80;1.00;;;;;;6219884;22;20497;-84
2022/11/04 08:46:06;;;;;;;18.30;14.27;;;11.80;1.00;;;;;;6220337;22;20466;-76
2022/11/04 08:48:35;;;;;;;21.00;16.00;;;11.80;1.00;;;;;;6219481;22;20424;-80
2022/11/04 08:51:11;;;;;;;20.27;16.60;;;11.70;1.00;;;;;;6218115;22;20471;-77
2022/11/04 08:53:44;;;;;;;22.30;15.90;;;11.80;1.00;;;;;;6215852;22;21188;-79
2022/11/04 08:56:14;;;;;;;18.10;14.43;;;11.90;1.00;;;;;;6219725;22;20416;-79
2022/11/04 08:58:43;;;;;;;19.83;15.33;;;11.90;1.00;;;;;;6203761;22;20478;-78
2022/11/04 09:01:11;;;;;;;21.13;14.27;;;12.00;1.00;;;;;;6209692;22;20471;-78
2022/11/04 09:03:40;;;;;;;20.53;14.40;;;12.00;1.00;;;;;;6223294;22;20892;-79
2022/11/04 09:06:08;;;;;;;26.17;14.33;;;11.90;1.00;;;;;;6218651;22;20474;-78
2022/11/04 09:08:36;;;;;;;23.17;14.13;;;11.90;1.00;;;;;;6216862;22;20401;-79
2022/11/04 09:11:09;;;;;;;17.97;14.10;;;11.90;1.00;;;;;;6222600;22;20411;-79
2022/11/04 09:13:37;;;;;;;15.37;12.43;;;11.90;1.00;;;;;;6211031;22;20454;-79
2022/11/04 09:16:11;;;;;;;18.00;11.07;;;12.00;1.00;;;;;;6209062;22;20430;-80
2022/11/04 09:18:38;;;;;;;14.87;11.23;;;12.00;1.00;;;;;;6231385;22;20429;-78
2022/11/04 09:21:08;;;;;;;17.57;12.27;;;12.10;1.00;;;;;;6218778;22;20459;-78
2022/11/04 09:23:38;;;;;;;15.17;11.57;;;12.10;1.00;;;;;;6219183;22;20495;-81
2022/11/04 09:26:09;;;;;;;14.97;10.60;;;12.20;1.00;;;;;;6205488;22;20874;-78
2022/11/04 09:28:39;;;;;;;12.63;9.77;;;12.30;1.00;;;;;;6218023;22;20430;-81
2022/11/04 09:31:07;;;;;;;14.43;10.30;;;12.30;1.00;;;;;;6222978;22;20621;-79
2022/11/04 09:33:36;;;;;;;13.07;10.20;;;12.40;1.00;;;;;;6226375;22;20418;-78
2022/11/04 09:36:08;;;;;;;11.73;9.37;;;12.40;1.00;;;;;;6221872;22;20451;-79
2022/11/04 09:38:35;;;;;;;15.83;8.80;;;12.50;1.00;;;;;;6193664;22;20388;-80
2022/11/04 09:41:19;;;;;;;13.93;9.37;;;12.60;1.00;;;;;;6219022;22;20440;-81
2022/11/04 09:43:54;;;;;;;12.90;9.20;;;12.70;1.00;;;;;;6220313;22;20423;-85
2022/11/04 09:46:23;;;;;;;20.70;10.20;;;12.70;1.00;;;;;;6219004;22;20447;-78
2022/11/04 09:48:54;;;;;;;11.00;8.33;;;12.90;1.00;;;;;;6206650;22;20540;-78
2022/11/04 09:51:29;;;;;;;16.70;11.47;;;13.00;1.00;;;;;;6233940;22;20445;-79
2022/11/04 09:53:59;;;;;;;12.97;8.40;;;12.90;1.00;;;;;;6217428;22;20508;-78
2022/11/04 09:56:35;;;;;;;11.30;7.90;;;13.00;1.00;;;;;;6239259;22;20416;-77
2022/11/04 09:59:03;;;;;;;11.33;8.40;;;13.00;1.00;;;;;;6218945;22;20431;-78
2022/11/04 10:01:40;;;;;;;13.33;9.00;;;13.00;1.00;;;;;;6220563;22;20564;-78
2022/11/04 10:04:18;;;;;;;14.13;9.93;;;13.10;1.00;;;;;;6204529;22;20419;-77
2022/11/04 10:07:06;;;;;;;11.87;8.70;;;13.20;1.00;;;;;;6211639;22;20443;-79
2022/11/04 10:09:46;;;;;;;13.07;8.80;;;13.30;1.00;;;;;;6224722;22;20424;-81
2022/11/04 10:12:25;;;;;;;13.27;7.90;;;13.30;1.00;;;;;;6219495;22;20434;-79
2022/11/04 10:15:07;;;;;;;11.43;7.90;;;13.20;1.00;;;;;;6214649;22;20424;-79
2022/11/04 10:17:48;;;;;;;11.67;8.33;;;13.20;1.00;;;;;;6223484;22;20427;-76
2022/11/04 10:20:29;;;;;;;13.53;8.97;;;13.20;1.00;;;;;;6219300;22;20840;-80
2022/11/04 10:23:05;;;;;;;15.13;9.47;;;13.20;1.00;;;;;;6217618;22;20427;-80
2022/11/04 10:25:44;;;;;;;11.53;7.97;;;13.20;1.00;;;;;;6219373;22;20744;-78
2022/11/04 10:28:17;;;;;;;14.93;9.07;;;13.20;1.00;;;;;;6217523;22;20427;-79
2022/11/04 10:30:48;;;;;;;13.00;9.20;;;13.10;1.00;;;;;;6197747;22;20510;-78
2022/11/04 10:33:26;;;;;;;13.47;8.63;;;13.10;1.00;;;;;;6223383;22;20506;-80
2022/11/04 10:35:57;;;;;;;16.03;9.70;;;13.00;1.00;;;;;;6218055;22;20866;-78
2022/11/04 10:38:33;;;;;;;14.53;9.07;;;13.00;1.00;;;;;;6220096;22;20433;-77
2022/11/04 10:41:00;;;;;;;12.57;9.27;;;13.00;1.00;;;;;;6175024;23;20731;-80
2022/11/04 10:43:32;;;;;;;13.80;9.60;;;13.10;1.00;;;;;;6206668;22;20933;-79
2022/11/04 10:46:20;;;;;;;12.33;8.80;;;13.10;1.00;;;;;;6217866;22;20415;-80
2022/11/04 10:48:51;;;;;;;12.53;9.83;;;13.00;1.00;;;;;;6206293;22;21160;-79
2022/11/04 10:51:21;;;;;;;18.00;11.10;;;13.00;1.00;;;;;;6219930;22;20605;-80
2022/11/04 10:53:50;;;;;;;14.77;11.40;;;12.90;1.00;;;;;;6219197;22;20438;-80
2022/11/04 10:56:22;;;;;;;14.83;11.50;;;12.80;1.00;;;;;;6225880;22;20493;-79
2022/11/04 10:58:54;;;;;;;13.73;10.70;;;12.90;1.00;;;;;;6205896;22;21048;-81
2022/11/04 11:01:29;;;;;;;13.20;11.17;;;12.80;1.00;;;;;;6205215;22;20428;-84
2022/11/04 11:03:59;;;;;;;14.00;11.43;;;12.70;1.00;;;;;;6214879;22;21024;-80
2022/11/04 11:06:37;;;;;;;16.57;11.90;;;12.70;1.00;;;;;;6218229;22;21093;-81
2022/11/04 11:09:27;;;;;;;16.17;11.70;;;12.60;1.00;;;;;;6217199;22;20957;-81
2022/11/04 11:11:59;;;;;;;14.90;11.27;;;12.50;1.00;;;;;;6199746;22;20494;-81
2022/11/04 11:14:46;;;;;;;14.27;11.20;;;12.50;1.00;;;;;;6216369;22;20484;-81
2022/11/04 11:17:26;;;;;;;14.13;12.20;;;12.50;1.00;;;;;;6206544;22;20502;-80
2022/11/04 11:19:58;;;;;;;15.57;11.10;;;12.40;1.00;;;;;;6199587;22;20429;-81
2022/11/04 11:22:38;;;;;;;15.93;11.57;;;12.30;1.00;;;;;;6223524;22;20566;-84
2022/11/04 11:25:25;;;;;;;14.87;11.57;;;12.30;1.00;;;;;;6210059;22;20509;-83
2022/11/04 11:28:00;;;;;;;14.50;10.23;;;12.20;1.00;;;;;;6217366;22;20430;-85
2022/11/04 11:30:32;;;;;;;13.20;10.50;;;12.20;1.00;;;;;;6239941;22;20477;-84
2022/11/04 11:35:58;;;;;;;16.20;12.40;;;12.20;1.00;;;;;;6197030;22;20443;-80
2022/11/04 11:38:38;;;;;;;13.60;11.03;;;12.30;1.00;;;;;;6235208;22;20605;-81
2022/11/04 11:41:17;;;;;;;16.07;11.83;;;12.30;1.00;;;;;;6221624;22;20422;-80
2022/11/04 11:43:58;;;;;;;14.30;12.27;;;12.30;1.00;;;;;;6201940;22;21272;-81
2022/11/04 11:46:34;;;;;;;17.53;13.07;;;12.20;1.00;;;;;;6217127;22;21011;-80
2022/11/04 11:51:45;;;;;;;17.03;13.00;;;12.20;1.00;;;;;;6211118;22;20456;-79
2022/11/04 11:54:48;;;;;;;16.00;13.53;;;12.20;1.00;;;;;;6217714;22;20546;-79
2022/11/04 11:57:32;;;;;;;16.60;14.10;;;12.20;1.00;;;;;;6221179;22;20431;-80
2022/11/04 12:00:15;;;;;;;18.10;12.87;;;12.20;1.00;;;;;;6223286;22;20492;-85
2022/11/04 12:02:55;;;;;;;16.00;12.87;;;12.10;1.00;;;;;;6218932;22;20504;-80
2022/11/04 12:05:34;;;;;;;17.73;12.17;;;12.10;1.00;;;;;;6228217;22;20422;-80
2022/11/04 12:08:19;;;;;;;14.33;12.20;;;12.10;1.00;;;;;;6217978;22;20438;-80
2022/11/04 12:10:54;;;;;;;15.10;12.60;;;12.00;1.00;;;;;;6190088;22;20506;-79
2022/11/04 12:13:27;;;;;;;16.20;13.67;;;11.90;1.00;;;;;;6238150;22;21045;-80
2022/11/04 12:16:15;;;;;;;15.10;12.40;;;11.90;1.00;;;;;;6218220;22;20484;-80
2022/11/04 12:19:07;;;;;;;18.17;12.90;;;11.90;1.00;;;;;;6217913;22;20554;-81
2022/11/04 12:21:42;;;;;;;18.60;13.97;;;11.90;1.00;;;;;;6219350;22;20775;-80
2022/11/04 12:24:20;;;;;;;19.63;16.07;;;11.80;1.00;;;;;;6205482;22;20785;-81
2022/11/04 12:26:56;;;;;;;20.43;13.73;;;11.80;1.00;;;;;;6218873;22;20469;-82
2022/11/04 12:29:36;;;;;;;17.90;15.50;;;11.80;1.00;;;;;;6216681;22;20454;-78
2022/11/04 12:32:16;;;;;;;20.03;16.40;;;11.90;1.00;;;;;;6206928;22;20433;-77
2022/11/04 12:34:58;;;;;;;21.23;16.77;;;11.90;1.00;;;;;;6230457;22;20425;-80
2022/11/04 12:37:32;;;;;;;20.80;17.40;;;12.00;1.00;;;;;;6219516;22;20492;-81
2022/11/04 12:40:15;;;;;;;19.33;16.60;;;12.00;1.00;;;;;;6192495;22;20421;-79
2022/11/04 12:43:07;;;;;;;18.80;16.17;;;12.00;1.00;;;;;;6213086;22;20510;-80
2022/11/04 12:45:45;;;;;;;17.50;14.80;;;12.10;1.00;;;;;;6223381;22;20779;-79
2022/11/04 12:48:28;;;;;;;16.23;13.63;;;12.10;1.00;;;;;;6204493;22;20431;-79
2022/11/04 12:51:19;;;;;;;15.30;12.00;;;12.00;1.00;;;;;;6192439;22;20458;-80
2022/11/04 12:53:59;;;;;;;14.27;11.93;;;11.90;1.00;;;;;;6200607;22;20504;-81
2022/11/04 12:56:37;;;;;;;14.20;11.47;;;11.90;1.00;;;;;;6212559;22;20912;-79
2022/11/04 12:59:25;;;;;;;14.70;12.27;;;11.80;1.00;;;;;;6202873;22;21041;-79
2022/11/04 13:01:58;;;;;;;19.47;15.43;;;11.80;1.00;;;;;;6218361;22;20466;-81
2022/11/04 13:04:32;;;;;;;15.73;12.73;;;11.80;1.00;;;;;;6218432;22;21262;-79
2022/11/04 13:07:08;;;;;;;13.67;10.87;;;11.80;1.00;;;;;;6218355;22;20765;-82
2022/11/04 13:09:42;;;;;;;14.70;12.50;;;11.80;1.00;;;;;;6219007;22;20436;-81
2022/11/04 13:12:13;;;;;;;14.47;11.30;;;11.80;1.00;;;;;;6224078;22;21031;-80
2022/11/04 13:14:57;;;;;;;15.93;11.30;;;11.80;1.00;;;;;;6222276;22;20410;-81
2022/11/04 13:17:28;;;;;;;17.90;13.53;;;11.80;1.00;;;;;;6219256;22;20879;-80
2022/11/04 13:20:03;;;;;;;15.10;11.77;;;11.80;1.00;;;;;;6219346;22;20423;-81
2022/11/04 13:22:37;;;;;;;15.20;12.90;;;11.90;1.00;;;;;;6222587;22;20838;-79
2022/11/04 13:25:23;;;;;;;18.27;12.27;;;11.90;1.00;;;;;;6219728;22;21167;-83
2022/11/04 13:27:56;;;;;;;15.27;12.30;;;12.00;1.00;;;;;;6194966;22;20502;-80
2022/11/04 13:30:40;;;;;;;15.13;11.80;;;12.10;1.00;;;;;;6220267;22;21177;-81
2022/11/04 13:33:25;;;;;;;16.63;11.63;;;12.10;1.00;;;;;;6218302;22;20926;-79
2022/11/04 13:36:01;;;;;;;15.33;11.90;;;12.10;1.00;;;;;;6232166;22;20953;-80
2022/11/04 13:38:35;;;;;;;14.27;12.37;;;12.10;1.00;;;;;;6212595;22;20472;-80
2022/11/04 13:41:28;;;;;;;14.23;12.07;;;12.00;1.00;;;;;;6232374;22;20929;-82
2022/11/04 13:43:59;;;;;;;14.20;11.37;;;12.00;1.00;;;;;;6230958;22;20430;-81
2022/11/04 13:46:29;;;;;;;14.57;11.90;;;11.80;1.00;;;;;;6221454;22;21212;-82
2022/11/04 13:49:05;;;;;;;13.87;10.60;;;11.80;1.00;;;;;;6221205;22;20426;-79